X  Cerrar Datos meteorológicos de aviación METAR     EHKD De Kooy Airport
Temperatura
19°C Temperatura
17°C Punto de rocío
88% Humedad



Viento
6 MPH
10 KM/H
3 M/S
5 NUDO



100°
E
Condiciones actuales

Parcialmente nublado Parcialmente nublado
Presión 1019.98 (hPa) - 30.12 (inHg)
Visibilidad 6 (milla) - 9.7 (km)
Aeropuerto
Código de aeropuerto EHKD

localidad: De Kooy Airport
Distancia: 34 (mi)

Metar:
EHKD 190155Z AUTO 10005KT 9999 FEW015CB 19/17 Q1020 BLU

Hora: 19-07-2024 03:55 CEST